sensor_id;sensor_type;location;lat;lon;timestamp;P1;durP1;ratioP1;P2;durP2;ratioP2
37785;SDS011;23625;48.784;9.336;2023-04-28T00:01:17;6.13;;;2.70;;
37785;SDS011;23625;48.784;9.336;2023-04-28T00:03:43;4.78;;;2.60;;
37785;SDS011;23625;48.784;9.336;2023-04-28T00:06:08;8.15;;;2.83;;
37785;SDS011;23625;48.784;9.336;2023-04-28T00:08:35;6.13;;;2.47;;
37785;SDS011;23625;48.784;9.336;2023-04-28T00:11:01;3.72;;;2.53;;
37785;SDS011;23625;48.784;9.336;2023-04-28T00:13:26;5.25;;;2.95;;
37785;SDS011;23625;48.784;9.336;2023-04-28T00:15:52;7.25;;;2.70;;
37785;SDS011;23625;48.784;9.336;2023-04-28T00:18:18;8.57;;;2.67;;
37785;SDS011;23625;48.784;9.336;2023-04-28T00:20:44;6.28;;;2.50;;
37785;SDS011;23625;48.784;9.336;2023-04-28T00:23:10;6.82;;;3.10;;
37785;SDS011;23625;48.784;9.336;2023-04-28T00:25:35;4.88;;;2.97;;
37785;SDS011;23625;48.784;9.336;2023-04-28T00:28:01;5.40;;;3.15;;
37785;SDS011;23625;48.784;9.336;2023-04-28T00:30:28;12.98;;;6.45;;
37785;SDS011;23625;48.784;9.336;2023-04-28T00:32:54;10.27;;;4.18;;
37785;SDS011;23625;48.784;9.336;2023-04-28T00:35:19;11.45;;;3.58;;
37785;SDS011;23625;48.784;9.336;2023-04-28T00:37:45;10.32;;;3.20;;
37785;SDS011;23625;48.784;9.336;2023-04-28T00:40:11;8.15;;;3.50;;
37785;SDS011;23625;48.784;9.336;2023-04-28T00:42:36;25.90;;;9.48;;
37785;SDS011;23625;48.784;9.336;2023-04-28T00:45:02;19.25;;;7.13;;
37785;SDS011;23625;48.784;9.336;2023-04-28T00:47:30;17.00;;;8.80;;
37785;SDS011;23625;48.784;9.336;2023-04-28T00:50:01;24.40;;;10.02;;
37785;SDS011;23625;48.784;9.336;2023-04-28T00:52:29;13.50;;;4.63;;
37785;SDS011;23625;48.784;9.336;2023-04-28T00:54:56;7.82;;;3.85;;
37785;SDS011;23625;48.784;9.336;2023-04-28T00:57:22;8.77;;;4.07;;
37785;SDS011;23625;48.784;9.336;2023-04-28T00:59:48;10.93;;;4.15;;
37785;SDS011;23625;48.784;9.336;2023-04-28T01:02:14;7.82;;;3.95;;
37785;SDS011;23625;48.784;9.336;2023-04-28T01:04:42;10.55;;;3.80;;
37785;SDS011;23625;48.784;9.336;2023-04-28T01:07:09;6.00;;;3.45;;
37785;SDS011;23625;48.784;9.336;2023-04-28T01:09:35;9.45;;;2.65;;
37785;SDS011;23625;48.784;9.336;2023-04-28T01:12:01;9.70;;;3.53;;
37785;SDS011;23625;48.784;9.336;2023-04-28T01:14:27;7.60;;;3.90;;
37785;SDS011;23625;48.784;9.336;2023-04-28T01:16:52;9.95;;;3.60;;
37785;SDS011;23625;48.784;9.336;2023-04-28T01:19:21;7.63;;;3.00;;
37785;SDS011;23625;48.784;9.336;2023-04-28T01:21:50;8.68;;;2.90;;
37785;SDS011;23625;48.784;9.336;2023-04-28T01:24:15;5.88;;;3.03;;
37785;SDS011;23625;48.784;9.336;2023-04-28T01:26:41;6.55;;;3.40;;
37785;SDS011;23625;48.784;9.336;2023-04-28T01:29:07;4.72;;;2.97;;
37785;SDS011;23625;48.784;9.336;2023-04-28T01:31:33;6.80;;;3.10;;
37785;SDS011;23625;48.784;9.336;2023-04-28T01:33:58;5.90;;;3.28;;
37785;SDS011;23625;48.784;9.336;2023-04-28T01:36:24;6.22;;;3.30;;
37785;SDS011;23625;48.784;9.336;2023-04-28T01:38:51;4.50;;;3.08;;
37785;SDS011;23625;48.784;9.336;2023-04-28T01:41:17;9.02;;;3.38;;
37785;SDS011;23625;48.784;9.336;2023-04-28T01:43:42;5.97;;;3.40;;
37785;SDS011;23625;48.784;9.336;2023-04-28T01:46:08;10.25;;;3.90;;
37785;SDS011;23625;48.784;9.336;2023-04-28T01:48:34;7.10;;;2.47;;
37785;SDS011;23625;48.784;9.336;2023-04-28T01:51:00;5.82;;;3.28;;
37785;SDS011;23625;48.784;9.336;2023-04-28T01:53:26;5.13;;;3.10;;
37785;SDS011;23625;48.784;9.336;2023-04-28T01:55:52;13.38;;;4.20;;
37785;SDS011;23625;48.784;9.336;2023-04-28T01:58:18;9.35;;;2.63;;
37785;SDS011;23625;48.784;9.336;2023-04-28T02:00:44;8.23;;;3.42;;
37785;SDS011;23625;48.784;9.336;2023-04-28T02:03:10;6.00;;;2.85;;
37785;SDS011;23625;48.784;9.336;2023-04-28T02:05:35;5.50;;;3.45;;
37785;SDS011;23625;48.784;9.336;2023-04-28T02:08:01;6.70;;;3.53;;
37785;SDS011;23625;48.784;9.336;2023-04-28T02:10:27;6.22;;;3.65;;
37785;SDS011;23625;48.784;9.336;2023-04-28T02:12:52;7.05;;;3.70;;
37785;SDS011;23625;48.784;9.336;2023-04-28T02:15:18;7.47;;;4.03;;
37785;SDS011;23625;48.784;9.336;2023-04-28T02:17:44;6.47;;;3.83;;
37785;SDS011;23625;48.784;9.336;2023-04-28T02:20:09;9.63;;;3.13;;
37785;SDS011;23625;48.784;9.336;2023-04-28T02:22:36;10.35;;;4.18;;
37785;SDS011;23625;48.784;9.336;2023-04-28T02:25:01;4.93;;;3.33;;
37785;SDS011;23625;48.784;9.336;2023-04-28T02:27:27;6.78;;;3.30;;
37785;SDS011;23625;48.784;9.336;2023-04-28T02:29:53;7.00;;;3.58;;
37785;SDS011;23625;48.784;9.336;2023-04-28T02:32:18;5.50;;;3.10;;
37785;SDS011;23625;48.784;9.336;2023-04-28T02:34:44;8.43;;;3.47;;
37785;SDS011;23625;48.784;9.336;2023-04-28T02:37:10;7.82;;;3.28;;
37785;SDS011;23625;48.784;9.336;2023-04-28T02:39:35;7.90;;;3.85;;
37785;SDS011;23625;48.784;9.336;2023-04-28T02:42:01;6.88;;;3.25;;
37785;SDS011;23625;48.784;9.336;2023-04-28T02:44:29;6.07;;;3.70;;
37785;SDS011;23625;48.784;9.336;2023-04-28T02:46:55;7.68;;;3.55;;
37785;SDS011;23625;48.784;9.336;2023-04-28T02:49:21;8.60;;;3.80;;
37785;SDS011;23625;48.784;9.336;2023-04-28T02:51:46;6.53;;;3.08;;
37785;SDS011;23625;48.784;9.336;2023-04-28T02:54:12;6.25;;;2.90;;
37785;SDS011;23625;48.784;9.336;2023-04-28T02:56:37;8.23;;;3.80;;
37785;SDS011;23625;48.784;9.336;2023-04-28T02:59:05;8.38;;;3.55;;
37785;SDS011;23625;48.784;9.336;2023-04-28T03:01:31;5.55;;;3.95;;
37785;SDS011;23625;48.784;9.336;2023-04-28T03:03:56;9.45;;;4.32;;
37785;SDS011;23625;48.784;9.336;2023-04-28T03:06:22;7.60;;;4.13;;
37785;SDS011;23625;48.784;9.336;2023-04-28T03:08:48;8.60;;;3.90;;
37785;SDS011;23625;48.784;9.336;2023-04-28T03:11:13;12.68;;;3.90;;
37785;SDS011;23625;48.784;9.336;2023-04-28T03:13:39;6.82;;;3.40;;
37785;SDS011;23625;48.784;9.336;2023-04-28T03:16:05;7.60;;;3.20;;
37785;SDS011;23625;48.784;9.336;2023-04-28T03:18:31;8.45;;;3.47;;
37785;SDS011;23625;48.784;9.336;2023-04-28T03:20:57;7.25;;;3.95;;
37785;SDS011;23625;48.784;9.336;2023-04-28T03:23:23;7.60;;;3.58;;
37785;SDS011;23625;48.784;9.336;2023-04-28T03:25:48;8.50;;;3.55;;
37785;SDS011;23625;48.784;9.336;2023-04-28T03:28:14;6.80;;;3.40;;
37785;SDS011;23625;48.784;9.336;2023-04-28T03:30:40;13.23;;;3.97;;
37785;SDS011;23625;48.784;9.336;2023-04-28T03:33:05;8.40;;;3.92;;
37785;SDS011;23625;48.784;9.336;2023-04-28T03:35:31;7.63;;;4.30;;
37785;SDS011;23625;48.784;9.336;2023-04-28T03:37:57;12.02;;;4.50;;
37785;SDS011;23625;48.784;9.336;2023-04-28T03:40:22;12.55;;;5.57;;
37785;SDS011;23625;48.784;9.336;2023-04-28T03:42:48;10.63;;;5.00;;
37785;SDS011;23625;48.784;9.336;2023-04-28T03:45:13;6.07;;;3.42;;
37785;SDS011;23625;48.784;9.336;2023-04-28T03:47:39;6.30;;;3.67;;
37785;SDS011;23625;48.784;9.336;2023-04-28T03:50:05;11.38;;;5.10;;
37785;SDS011;23625;48.784;9.336;2023-04-28T03:52:31;8.77;;;4.80;;
37785;SDS011;23625;48.784;9.336;2023-04-28T03:54:57;8.80;;;4.32;;
37785;SDS011;23625;48.784;9.336;2023-04-28T03:57:22;8.10;;;5.10;;
37785;SDS011;23625;48.784;9.336;2023-04-28T03:59:48;8.45;;;4.75;;
37785;SDS011;23625;48.784;9.336;2023-04-28T04:02:13;12.45;;;4.57;;
37785;SDS011;23625;48.784;9.336;2023-04-28T04:04:39;13.30;;;4.80;;
37785;SDS011;23625;48.784;9.336;2023-04-28T04:07:05;10.75;;;4.95;;
37785;SDS011;23625;48.784;9.336;2023-04-28T04:09:30;9.52;;;4.95;;
37785;SDS011;23625;48.784;9.336;2023-04-28T04:11:56;6.88;;;4.57;;
37785;SDS011;23625;48.784;9.336;2023-04-28T04:14:22;21.10;;;5.75;;
37785;SDS011;23625;48.784;9.336;2023-04-28T04:16:48;8.98;;;4.82;;
37785;SDS011;23625;48.784;9.336;2023-04-28T04:19:14;14.32;;;4.40;;
37785;SDS011;23625;48.784;9.336;2023-04-28T04:21:39;6.97;;;3.60;;
37785;SDS011;23625;48.784;9.336;2023-04-28T04:24:05;10.05;;;3.85;;
37785;SDS011;23625;48.784;9.336;2023-04-28T04:26:31;6.30;;;3.60;;
37785;SDS011;23625;48.784;9.336;2023-04-28T04:28:56;6.90;;;3.78;;
37785;SDS011;23625;48.784;9.336;2023-04-28T04:31:22;9.60;;;4.00;;
37785;SDS011;23625;48.784;9.336;2023-04-28T04:33:48;5.22;;;2.97;;
37785;SDS011;23625;48.784;9.336;2023-04-28T04:36:13;6.18;;;3.80;;
37785;SDS011;23625;48.784;9.336;2023-04-28T04:38:39;5.05;;;3.33;;
37785;SDS011;23625;48.784;9.336;2023-04-28T04:41:05;6.65;;;3.30;;
37785;SDS011;23625;48.784;9.336;2023-04-28T04:43:30;7.47;;;3.60;;
37785;SDS011;23625;48.784;9.336;2023-04-28T04:45:56;6.05;;;3.33;;
37785;SDS011;23625;48.784;9.336;2023-04-28T04:48:22;8.40;;;3.25;;
37785;SDS011;23625;48.784;9.336;2023-04-28T04:50:47;8.88;;;3.03;;
37785;SDS011;23625;48.784;9.336;2023-04-28T04:53:13;8.02;;;3.15;;
37785;SDS011;23625;48.784;9.336;2023-04-28T04:55:38;7.05;;;3.05;;
37785;SDS011;23625;48.784;9.336;2023-04-28T04:58:04;4.78;;;3.22;;
37785;SDS011;23625;48.784;9.336;2023-04-28T05:00:30;5.85;;;3.33;;
37785;SDS011;23625;48.784;9.336;2023-04-28T05:02:55;6.90;;;3.33;;
37785;SDS011;23625;48.784;9.336;2023-04-28T05:05:21;5.90;;;3.10;;
37785;SDS011;23625;48.784;9.336;2023-04-28T05:07:46;8.63;;;3.33;;
37785;SDS011;23625;48.784;9.336;2023-04-28T05:10:12;5.55;;;3.35;;
37785;SDS011;23625;48.784;9.336;2023-04-28T05:12:37;7.85;;;3.30;;
37785;SDS011;23625;48.784;9.336;2023-04-28T05:15:06;10.75;;;3.55;;
37785;SDS011;23625;48.784;9.336;2023-04-28T05:17:32;5.15;;;3.03;;
37785;SDS011;23625;48.784;9.336;2023-04-28T05:19:58;6.63;;;3.42;;
37785;SDS011;23625;48.784;9.336;2023-04-28T05:22:24;7.10;;;3.78;;
37785;SDS011;23625;48.784;9.336;2023-04-28T05:24:50;11.65;;;4.15;;
37785;SDS011;23625;48.784;9.336;2023-04-28T05:27:17;6.57;;;3.92;;
37785;SDS011;23625;48.784;9.336;2023-04-28T05:29:43;10.90;;;4.65;;
37785;SDS011;23625;48.784;9.336;2023-04-28T05:32:09;13.15;;;5.05;;
37785;SDS011;23625;48.784;9.336;2023-04-28T05:34:34;9.48;;;4.32;;
37785;SDS011;23625;48.784;9.336;2023-04-28T05:37:00;14.20;;;4.82;;
37785;SDS011;23625;48.784;9.336;2023-04-28T05:39:25;10.65;;;5.10;;
37785;SDS011;23625;48.784;9.336;2023-04-28T05:41:51;8.98;;;5.28;;
37785;SDS011;23625;48.784;9.336;2023-04-28T05:44:16;11.20;;;5.18;;
37785;SDS011;23625;48.784;9.336;2023-04-28T05:46:42;8.00;;;4.93;;
37785;SDS011;23625;48.784;9.336;2023-04-28T05:49:08;9.65;;;5.60;;
37785;SDS011;23625;48.784;9.336;2023-04-28T05:51:34;10.52;;;5.43;;
37785;SDS011;23625;48.784;9.336;2023-04-28T05:54:00;9.85;;;4.75;;
37785;SDS011;23625;48.784;9.336;2023-04-28T05:56:25;11.68;;;5.65;;
37785;SDS011;23625;48.784;9.336;2023-04-28T05:58:51;14.07;;;5.60;;
37785;SDS011;23625;48.784;9.336;2023-04-28T06:01:17;11.48;;;5.90;;
37785;SDS011;23625;48.784;9.336;2023-04-28T06:03:43;11.98;;;5.55;;
37785;SDS011;23625;48.784;9.336;2023-04-28T06:06:09;10.50;;;6.25;;
37785;SDS011;23625;48.784;9.336;2023-04-28T06:08:35;11.02;;;5.85;;
37785;SDS011;23625;48.784;9.336;2023-04-28T06:11:01;15.65;;;5.88;;
37785;SDS011;23625;48.784;9.336;2023-04-28T06:13:26;10.02;;;5.03;;
37785;SDS011;23625;48.784;9.336;2023-04-28T06:15:52;10.88;;;5.18;;
37785;SDS011;23625;48.784;9.336;2023-04-28T06:18:18;13.50;;;6.68;;
37785;SDS011;23625;48.784;9.336;2023-04-28T06:20:43;12.07;;;5.15;;
37785;SDS011;23625;48.784;9.336;2023-04-28T06:23:09;12.82;;;5.88;;
37785;SDS011;23625;48.784;9.336;2023-04-28T06:25:35;11.23;;;5.45;;
37785;SDS011;23625;48.784;9.336;2023-04-28T06:28:01;10.80;;;5.72;;
37785;SDS011;23625;48.784;9.336;2023-04-28T06:30:27;16.33;;;5.95;;
37785;SDS011;23625;48.784;9.336;2023-04-28T06:32:52;16.85;;;6.25;;
37785;SDS011;23625;48.784;9.336;2023-04-28T06:35:18;8.43;;;5.15;;
37785;SDS011;23625;48.784;9.336;2023-04-28T06:37:44;8.93;;;5.65;;
37785;SDS011;23625;48.784;9.336;2023-04-28T06:40:10;8.40;;;5.68;;
37785;SDS011;23625;48.784;9.336;2023-04-28T06:42:36;10.32;;;5.55;;
37785;SDS011;23625;48.784;9.336;2023-04-28T06:45:01;9.23;;;5.72;;
37785;SDS011;23625;48.784;9.336;2023-04-28T06:47:33;7.93;;;5.03;;
37785;SDS011;23625;48.784;9.336;2023-04-28T06:49:59;12.48;;;5.60;;
37785;SDS011;23625;48.784;9.336;2023-04-28T06:52:25;10.00;;;5.60;;
37785;SDS011;23625;48.784;9.336;2023-04-28T06:54:53;12.05;;;5.38;;
37785;SDS011;23625;48.784;9.336;2023-04-28T06:57:19;9.15;;;5.85;;
37785;SDS011;23625;48.784;9.336;2023-04-28T06:59:45;10.07;;;4.60;;
37785;SDS011;23625;48.784;9.336;2023-04-28T07:02:11;12.65;;;5.53;;
37785;SDS011;23625;48.784;9.336;2023-04-28T07:04:36;10.20;;;5.15;;
37785;SDS011;23625;48.784;9.336;2023-04-28T07:07:02;12.80;;;4.82;;
37785;SDS011;23625;48.784;9.336;2023-04-28T07:09:32;9.98;;;5.10;;
37785;SDS011;23625;48.784;9.336;2023-04-28T07:12:01;9.68;;;5.32;;
37785;SDS011;23625;48.784;9.336;2023-04-28T07:14:28;7.90;;;4.20;;
37785;SDS011;23625;48.784;9.336;2023-04-28T07:16:54;8.23;;;4.85;;
37785;SDS011;23625;48.784;9.336;2023-04-28T07:19:20;12.43;;;5.03;;
37785;SDS011;23625;48.784;9.336;2023-04-28T07:21:45;10.25;;;4.03;;
37785;SDS011;23625;48.784;9.336;2023-04-28T07:24:11;10.75;;;5.28;;
37785;SDS011;23625;48.784;9.336;2023-04-28T07:26:36;6.13;;;4.20;;
37785;SDS011;23625;48.784;9.336;2023-04-28T07:29:02;7.88;;;4.57;;
37785;SDS011;23625;48.784;9.336;2023-04-28T07:31:28;11.05;;;4.00;;
37785;SDS011;23625;48.784;9.336;2023-04-28T07:33:53;7.10;;;4.65;;
37785;SDS011;23625;48.784;9.336;2023-04-28T07:36:19;7.20;;;4.53;;
37785;SDS011;23625;48.784;9.336;2023-04-28T07:38:45;8.48;;;4.07;;
37785;SDS011;23625;48.784;9.336;2023-04-28T07:41:11;8.10;;;4.07;;
37785;SDS011;23625;48.784;9.336;2023-04-28T07:43:37;7.20;;;3.92;;
37785;SDS011;23625;48.784;9.336;2023-04-28T07:46:03;6.93;;;4.32;;
37785;SDS011;23625;48.784;9.336;2023-04-28T07:48:30;6.45;;;3.92;;
37785;SDS011;23625;48.784;9.336;2023-04-28T07:50:56;7.30;;;4.50;;
37785;SDS011;23625;48.784;9.336;2023-04-28T07:53:22;6.45;;;4.40;;
37785;SDS011;23625;48.784;9.336;2023-04-28T07:55:47;11.18;;;4.30;;
37785;SDS011;23625;48.784;9.336;2023-04-28T07:58:13;7.13;;;4.47;;
37785;SDS011;23625;48.784;9.336;2023-04-28T08:00:39;7.78;;;4.75;;
37785;SDS011;23625;48.784;9.336;2023-04-28T08:03:04;7.18;;;4.57;;
37785;SDS011;23625;48.784;9.336;2023-04-28T08:05:30;8.82;;;4.50;;
37785;SDS011;23625;48.784;9.336;2023-04-28T08:07:56;9.05;;;5.05;;
37785;SDS011;23625;48.784;9.336;2023-04-28T08:10:23;8.75;;;4.88;;
37785;SDS011;23625;48.784;9.336;2023-04-28T08:12:50;8.32;;;4.43;;
37785;SDS011;23625;48.784;9.336;2023-04-28T08:18:04;11.63;;;5.60;;
37785;SDS011;23625;48.784;9.336;2023-04-28T08:20:29;11.98;;;4.95;;
37785;SDS011;23625;48.784;9.336;2023-04-28T08:22:56;17.20;;;6.55;;
37785;SDS011;23625;48.784;9.336;2023-04-28T08:25:22;12.55;;;6.88;;
37785;SDS011;23625;48.784;9.336;2023-04-28T08:27:48;9.55;;;5.82;;
37785;SDS011;23625;48.784;9.336;2023-04-28T08:30:13;11.20;;;6.07;;
37785;SDS011;23625;48.784;9.336;2023-04-28T08:32:39;47.55;;;20.40;;
37785;SDS011;23625;48.784;9.336;2023-04-28T08:35:05;38.83;;;17.95;;
37785;SDS011;23625;48.784;9.336;2023-04-28T08:37:31;38.60;;;24.92;;
37785;SDS011;23625;48.784;9.336;2023-04-28T08:39:56;25.30;;;12.60;;
37785;SDS011;23625;48.784;9.336;2023-04-28T08:42:33;21.15;;;9.05;;
37785;SDS011;23625;48.784;9.336;2023-04-28T08:44:59;16.98;;;8.90;;
37785;SDS011;23625;48.784;9.336;2023-04-28T08:50:01;13.55;;;6.45;;
37785;SDS011;23625;48.784;9.336;2023-04-28T08:52:31;12.70;;;6.60;;
37785;SDS011;23625;48.784;9.336;2023-04-28T08:54:58;32.15;;;14.23;;
37785;SDS011;23625;48.784;9.336;2023-04-28T08:57:25;54.38;;;25.20;;
37785;SDS011;23625;48.784;9.336;2023-04-28T08:59:54;37.03;;;16.70;;
37785;SDS011;23625;48.784;9.336;2023-04-28T09:02:20;38.28;;;18.23;;
37785;SDS011;23625;48.784;9.336;2023-04-28T09:04:46;34.35;;;17.13;;
37785;SDS011;23625;48.784;9.336;2023-04-28T09:07:12;24.90;;;10.77;;
37785;SDS011;23625;48.784;9.336;2023-04-28T09:09:38;16.90;;;8.73;;
37785;SDS011;23625;48.784;9.336;2023-04-28T09:12:05;16.05;;;8.07;;
37785;SDS011;23625;48.784;9.336;2023-04-28T09:14:31;13.82;;;7.30;;
37785;SDS011;23625;48.784;9.336;2023-04-28T09:16:58;12.52;;;6.25;;
37785;SDS011;23625;48.784;9.336;2023-04-28T09:19:32;8.77;;;5.68;;
37785;SDS011;23625;48.784;9.336;2023-04-28T09:22:00;9.20;;;5.90;;
37785;SDS011;23625;48.784;9.336;2023-04-28T09:26:55;9.07;;;5.72;;
37785;SDS011;23625;48.784;9.336;2023-04-28T09:29:22;13.23;;;5.38;;
37785;SDS011;23625;48.784;9.336;2023-04-28T09:31:48;10.70;;;5.57;;
37785;SDS011;23625;48.784;9.336;2023-04-28T09:34:13;7.85;;;5.60;;
37785;SDS011;23625;48.784;9.336;2023-04-28T09:36:39;8.25;;;5.13;;
37785;SDS011;23625;48.784;9.336;2023-04-28T09:39:05;10.70;;;5.70;;
37785;SDS011;23625;48.784;9.336;2023-04-28T09:41:35;11.38;;;5.57;;
37785;SDS011;23625;48.784;9.336;2023-04-28T09:44:17;8.98;;;5.50;;
37785;SDS011;23625;48.784;9.336;2023-04-28T09:46:45;9.07;;;5.70;;
37785;SDS011;23625;48.784;9.336;2023-04-28T09:49:12;10.80;;;5.47;;
37785;SDS011;23625;48.784;9.336;2023-04-28T09:51:38;10.40;;;6.28;;
37785;SDS011;23625;48.784;9.336;2023-04-28T09:54:04;10.45;;;5.82;;
37785;SDS011;23625;48.784;9.336;2023-04-28T09:56:31;11.80;;;6.13;;
37785;SDS011;23625;48.784;9.336;2023-04-28T09:59:00;9.57;;;6.07;;
37785;SDS011;23625;48.784;9.336;2023-04-28T10:01:26;8.70;;;5.55;;
37785;SDS011;23625;48.784;9.336;2023-04-28T10:03:55;13.32;;;6.03;;
37785;SDS011;23625;48.784;9.336;2023-04-28T10:06:23;9.95;;;5.85;;
37785;SDS011;23625;48.784;9.336;2023-04-28T10:08:49;8.98;;;5.88;;
37785;SDS011;23625;48.784;9.336;2023-04-28T10:11:16;8.43;;;5.65;;
37785;SDS011;23625;48.784;9.336;2023-04-28T10:13:42;8.32;;;5.03;;
37785;SDS011;23625;48.784;9.336;2023-04-28T10:16:09;10.18;;;5.72;;
37785;SDS011;23625;48.784;9.336;2023-04-28T10:18:35;8.57;;;4.78;;
37785;SDS011;23625;48.784;9.336;2023-04-28T10:21:02;7.45;;;5.03;;
37785;SDS011;23625;48.784;9.336;2023-04-28T10:26:35;8.45;;;4.57;;
37785;SDS011;23625;48.784;9.336;2023-04-28T10:29:25;6.28;;;4.60;;
37785;SDS011;23625;48.784;9.336;2023-04-28T10:34:40;7.05;;;4.13;;
37785;SDS011;23625;48.784;9.336;2023-04-28T10:37:06;8.68;;;4.82;;
37785;SDS011;23625;48.784;9.336;2023-04-28T10:39:31;8.50;;;4.10;;
37785;SDS011;23625;48.784;9.336;2023-04-28T10:41:57;6.43;;;4.25;;
37785;SDS011;23625;48.784;9.336;2023-04-28T10:47:07;6.97;;;3.67;;
37785;SDS011;23625;48.784;9.336;2023-04-28T10:50:19;6.03;;;3.78;;
37785;SDS011;23625;48.784;9.336;2023-04-28T11:00:41;9.25;;;3.25;;
37785;SDS011;23625;48.784;9.336;2023-04-28T11:03:21;5.65;;;3.38;;
37785;SDS011;23625;48.784;9.336;2023-04-28T11:08:51;7.57;;;3.20;;
37785;SDS011;23625;48.784;9.336;2023-04-28T11:11:20;5.50;;;3.13;;
37785;SDS011;23625;48.784;9.336;2023-04-28T11:13:47;5.50;;;3.05;;
37785;SDS011;23625;48.784;9.336;2023-04-28T11:16:20;8.30;;;2.70;;
37785;SDS011;23625;48.784;9.336;2023-04-28T11:18:48;7.55;;;2.60;;
37785;SDS011;23625;48.784;9.336;2023-04-28T11:21:24;20.20;;;12.15;;
37785;SDS011;23625;48.784;9.336;2023-04-28T11:23:52;5.30;;;2.60;;
37785;SDS011;23625;48.784;9.336;2023-04-28T11:26:18;4.32;;;2.42;;
37785;SDS011;23625;48.784;9.336;2023-04-28T11:28:54;4.57;;;2.22;;
37785;SDS011;23625;48.784;9.336;2023-04-28T11:31:23;2.50;;;1.80;;
37785;SDS011;23625;48.784;9.336;2023-04-28T11:36:27;4.20;;;1.58;;
37785;SDS011;23625;48.784;9.336;2023-04-28T11:38:56;3.72;;;1.85;;
37785;SDS011;23625;48.784;9.336;2023-04-28T11:41:23;1.63;;;1.27;;
37785;SDS011;23625;48.784;9.336;2023-04-28T11:43:49;4.03;;;1.65;;
37785;SDS011;23625;48.784;9.336;2023-04-28T11:46:15;3.63;;;1.35;;
37785;SDS011;23625;48.784;9.336;2023-04-28T11:48:42;1.38;;;0.80;;
37785;SDS011;23625;48.784;9.336;2023-04-28T11:51:07;2.25;;;0.82;;
37785;SDS011;23625;48.784;9.336;2023-04-28T11:53:40;1.95;;;0.85;;
37785;SDS011;23625;48.784;9.336;2023-04-28T11:56:09;1.65;;;0.80;;
37785;SDS011;23625;48.784;9.336;2023-04-28T11:58:37;1.02;;;0.75;;
37785;SDS011;23625;48.784;9.336;2023-04-28T12:01:11;1.25;;;0.80;;
37785;SDS011;23625;48.784;9.336;2023-04-28T12:03:42;1.88;;;0.88;;
37785;SDS011;23625;48.784;9.336;2023-04-28T12:06:09;0.60;;;0.55;;
37785;SDS011;23625;48.784;9.336;2023-04-28T12:08:34;2.08;;;1.38;;
37785;SDS011;23625;48.784;9.336;2023-04-28T12:11:09;2.40;;;0.80;;
37785;SDS011;23625;48.784;9.336;2023-04-28T12:13:39;1.40;;;0.70;;
37785;SDS011;23625;48.784;9.336;2023-04-28T12:16:05;9.43;;;0.70;;
37785;SDS011;23625;48.784;9.336;2023-04-28T12:18:32;1.42;;;0.73;;
37785;SDS011;23625;48.784;9.336;2023-04-28T12:21:02;0.47;;;0.43;;
37785;SDS011;23625;48.784;9.336;2023-04-28T12:25:58;1.95;;;0.40;;
37785;SDS011;23625;48.784;9.336;2023-04-28T12:28:37;1.60;;;0.55;;
37785;SDS011;23625;48.784;9.336;2023-04-28T12:31:05;0.80;;;0.50;;
37785;SDS011;23625;48.784;9.336;2023-04-28T12:33:33;2.60;;;0.70;;
37785;SDS011;23625;48.784;9.336;2023-04-28T12:36:01;1.15;;;0.55;;
37785;SDS011;23625;48.784;9.336;2023-04-28T12:38:29;4.07;;;0.65;;
37785;SDS011;23625;48.784;9.336;2023-04-28T12:40:55;1.17;;;0.77;;
37785;SDS011;23625;48.784;9.336;2023-04-28T12:43:21;2.00;;;0.90;;
37785;SDS011;23625;48.784;9.336;2023-04-28T12:45:51;10.57;;;6.22;;
37785;SDS011;23625;48.784;9.336;2023-04-28T12:48:17;8.48;;;3.60;;
37785;SDS011;23625;48.784;9.336;2023-04-28T12:50:43;7.45;;;3.35;;
37785;SDS011;23625;48.784;9.336;2023-04-28T12:53:09;5.38;;;2.63;;
37785;SDS011;23625;48.784;9.336;2023-04-28T12:55:35;16.23;;;7.88;;
37785;SDS011;23625;48.784;9.336;2023-04-28T12:58:02;22.85;;;10.07;;
37785;SDS011;23625;48.784;9.336;2023-04-28T13:00:29;3.72;;;2.65;;
37785;SDS011;23625;48.784;9.336;2023-04-28T13:02:54;3.58;;;2.65;;
37785;SDS011;23625;48.784;9.336;2023-04-28T13:05:20;7.60;;;4.18;;
37785;SDS011;23625;48.784;9.336;2023-04-28T13:07:46;1.95;;;1.38;;
37785;SDS011;23625;48.784;9.336;2023-04-28T13:10:13;1.63;;;0.80;;
37785;SDS011;23625;48.784;9.336;2023-04-28T13:12:38;3.00;;;1.17;;
37785;SDS011;23625;48.784;9.336;2023-04-28T13:15:06;1.38;;;1.00;;
37785;SDS011;23625;48.784;9.336;2023-04-28T13:17:32;3.20;;;1.00;;
37785;SDS011;23625;48.784;9.336;2023-04-28T13:19:58;0.90;;;0.60;;
37785;SDS011;23625;48.784;9.336;2023-04-28T13:22:25;1.10;;;0.50;;
37785;SDS011;23625;48.784;9.336;2023-04-28T13:24:51;4.05;;;0.30;;
37785;SDS011;23625;48.784;9.336;2023-04-28T13:27:16;0.73;;;0.40;;
37785;SDS011;23625;48.784;9.336;2023-04-28T13:29:42;10.85;;;3.15;;
37785;SDS011;23625;48.784;9.336;2023-04-28T13:32:08;5.55;;;2.75;;
37785;SDS011;23625;48.784;9.336;2023-04-28T13:34:34;3.78;;;2.22;;
37785;SDS011;23625;48.784;9.336;2023-04-28T13:37:01;1.38;;;1.23;;
37785;SDS011;23625;48.784;9.336;2023-04-28T13:39:27;0.95;;;0.60;;
37785;SDS011;23625;48.784;9.336;2023-04-28T13:41:53;1.27;;;0.68;;
37785;SDS011;23625;48.784;9.336;2023-04-28T13:44:18;52.58;;;21.52;;
37785;SDS011;23625;48.784;9.336;2023-04-28T13:46:44;8.88;;;4.78;;
37785;SDS011;23625;48.784;9.336;2023-04-28T13:49:11;3.40;;;0.70;;
37785;SDS011;23625;48.784;9.336;2023-04-28T13:51:37;0.80;;;0.60;;
37785;SDS011;23625;48.784;9.336;2023-04-28T13:54:03;1.95;;;0.50;;
37785;SDS011;23625;48.784;9.336;2023-04-28T13:56:29;1.45;;;0.50;;
37785;SDS011;23625;48.784;9.336;2023-04-28T13:58:56;3.55;;;0.60;;
37785;SDS011;23625;48.784;9.336;2023-04-28T14:01:21;2.13;;;0.80;;
37785;SDS011;23625;48.784;9.336;2023-04-28T14:03:47;3.03;;;0.95;;
37785;SDS011;23625;48.784;9.336;2023-04-28T14:06:13;2.50;;;0.73;;
37785;SDS011;23625;48.784;9.336;2023-04-28T14:08:38;2.53;;;0.50;;
37785;SDS011;23625;48.784;9.336;2023-04-28T14:11:04;6.95;;;0.65;;
37785;SDS011;23625;48.784;9.336;2023-04-28T14:13:30;1.85;;;0.77;;
37785;SDS011;23625;48.784;9.336;2023-04-28T14:15:55;1.25;;;0.50;;
37785;SDS011;23625;48.784;9.336;2023-04-28T14:18:22;2.15;;;0.60;;
37785;SDS011;23625;48.784;9.336;2023-04-28T14:20:47;3.08;;;0.60;;
37785;SDS011;23625;48.784;9.336;2023-04-28T14:23:13;3.75;;;0.73;;
37785;SDS011;23625;48.784;9.336;2023-04-28T14:25:39;2.10;;;1.00;;
37785;SDS011;23625;48.784;9.336;2023-04-28T14:28:05;0.65;;;0.40;;
37785;SDS011;23625;48.784;9.336;2023-04-28T14:30:30;0.73;;;0.32;;
37785;SDS011;23625;48.784;9.336;2023-04-28T14:32:56;2.92;;;0.50;;
37785;SDS011;23625;48.784;9.336;2023-04-28T14:35:23;1.13;;;0.50;;
37785;SDS011;23625;48.784;9.336;2023-04-28T14:37:48;0.75;;;0.52;;
37785;SDS011;23625;48.784;9.336;2023-04-28T14:40:15;0.85;;;0.50;;
37785;SDS011;23625;48.784;9.336;2023-04-28T14:42:41;1.42;;;0.50;;
37785;SDS011;23625;48.784;9.336;2023-04-28T14:45:08;8.15;;;1.98;;
37785;SDS011;23625;48.784;9.336;2023-04-28T14:47:35;2.88;;;0.47;;
37785;SDS011;23625;48.784;9.336;2023-04-28T14:50:02;0.93;;;0.50;;
37785;SDS011;23625;48.784;9.336;2023-04-28T14:52:28;1.13;;;0.50;;
37785;SDS011;23625;48.784;9.336;2023-04-28T14:54:56;3.10;;;0.57;;
37785;SDS011;23625;48.784;9.336;2023-04-28T14:57:23;4.45;;;0.80;;
37785;SDS011;23625;48.784;9.336;2023-04-28T14:59:49;3.38;;;0.77;;
37785;SDS011;23625;48.784;9.336;2023-04-28T15:02:16;2.53;;;0.60;;
37785;SDS011;23625;48.784;9.336;2023-04-28T15:04:42;1.15;;;0.70;;
37785;SDS011;23625;48.784;9.336;2023-04-28T15:07:10;1.83;;;1.00;;
37785;SDS011;23625;48.784;9.336;2023-04-28T15:09:36;1.95;;;0.70;;
37785;SDS011;23625;48.784;9.336;2023-04-28T15:12:01;1.27;;;0.70;;